createdAt,value
2023-05-24T00:00:02.818Z,5.80
2023-05-24T00:02:29.906Z,7.60
2023-05-24T00:05:00.956Z,7.65
2023-05-24T00:07:28.185Z,6.15
2023-05-24T00:09:55.532Z,7.50
2023-05-24T00:12:22.586Z,6.25
2023-05-24T00:14:49.605Z,6.45
2023-05-24T00:17:16.674Z,6.45
2023-05-24T00:19:43.734Z,6.65
2023-05-24T00:22:11.923Z,6.13
2023-05-24T00:24:39.045Z,6.20
2023-05-24T00:27:07.019Z,6.25
2023-05-24T00:29:34.095Z,5.88
2023-05-24T00:32:01.148Z,6.05
2023-05-24T00:34:28.129Z,6.78
2023-05-24T00:36:55.164Z,5.95
2023-05-24T00:39:22.084Z,6.70
2023-05-24T00:41:49.514Z,8.07
2023-05-24T00:44:16.569Z,5.20
2023-05-24T00:46:44.040Z,9.00
2023-05-24T00:49:11.174Z,6.90
2023-05-24T00:51:38.628Z,5.55
2023-05-24T00:54:06.939Z,7.78
2023-05-24T00:56:35.687Z,6.40
2023-05-24T00:59:02.879Z,7.03
2023-05-24T01:01:31.376Z,7.80
2023-05-24T01:03:59.680Z,7.60
2023-05-24T01:06:28.534Z,7.35
2023-05-24T01:09:04.875Z,9.63
2023-05-24T01:11:55.867Z,4.97
2023-05-24T01:14:38.193Z,4.82
2023-05-24T01:17:21.143Z,6.38
2023-05-24T01:20:02.585Z,6.68
2023-05-24T01:22:46.716Z,6.90
2023-05-24T01:25:28.018Z,5.07
2023-05-24T01:27:56.820Z,6.70
2023-05-24T01:30:24.687Z,5.85
2023-05-24T01:32:52.887Z,4.95
2023-05-24T01:35:20.029Z,5.35
2023-05-24T01:37:47.182Z,5.60
2023-05-24T01:40:14.618Z,5.60
2023-05-24T01:42:54.137Z,4.55
2023-05-24T01:45:40.792Z,5.97
2023-05-24T01:48:07.784Z,6.57
2023-05-24T01:50:49.613Z,5.72
2023-05-24T01:53:20.083Z,6.45
2023-05-24T01:55:49.900Z,5.55
2023-05-24T01:58:19.706Z,7.85
2023-05-24T02:00:47.082Z,4.85
2023-05-24T02:03:15.857Z,6.53
2023-05-24T02:05:44.452Z,4.07
2023-05-24T02:08:12.874Z,6.80
2023-05-24T02:10:41.120Z,5.72
2023-05-24T02:13:09.055Z,4.43
2023-05-24T02:15:36.516Z,6.13
2023-05-24T02:18:04.284Z,4.60
2023-05-24T02:20:31.504Z,4.88
2023-05-24T02:22:58.921Z,5.68
2023-05-24T02:25:26.258Z,5.68
2023-05-24T02:27:53.339Z,4.55
2023-05-24T02:30:20.544Z,6.47
2023-05-24T02:32:47.962Z,4.85
2023-05-24T02:35:15.067Z,5.15
2023-05-24T02:37:42.061Z,3.85
2023-05-24T02:40:09.694Z,6.45
2023-05-24T02:42:36.772Z,6.50
2023-05-24T02:45:04.083Z,5.65
2023-05-24T02:47:31.279Z,5.28
2023-05-24T02:49:58.266Z,4.82
2023-05-24T02:52:25.650Z,6.10
2023-05-24T02:54:52.758Z,6.20
2023-05-24T02:57:19.724Z,6.47
2023-05-24T02:59:46.810Z,7.65
2023-05-24T03:02:13.844Z,5.57
2023-05-24T03:04:40.908Z,4.40
2023-05-24T03:07:07.862Z,6.85
2023-05-24T03:09:34.858Z,5.10
2023-05-24T03:12:01.865Z,4.40
2023-05-24T03:14:28.977Z,4.57
2023-05-24T03:16:56.199Z,3.95
2023-05-24T03:19:23.260Z,4.97
2023-05-24T03:21:50.504Z,5.85
2023-05-24T03:24:17.491Z,4.75
2023-05-24T03:26:44.802Z,5.72
2023-05-24T03:29:11.832Z,4.72
2023-05-24T03:31:38.885Z,3.80
2023-05-24T03:34:06.055Z,4.50
2023-05-24T03:36:33.041Z,4.55
2023-05-24T03:39:00.097Z,5.22
2023-05-24T03:41:28.294Z,4.55
2023-05-24T03:43:55.416Z,4.43
2023-05-24T03:46:22.514Z,3.83
2023-05-24T03:48:49.795Z,6.25
2023-05-24T03:51:17.047Z,4.45
2023-05-24T03:53:44.081Z,4.50
2023-05-24T03:56:11.159Z,6.53
2023-05-24T03:58:38.748Z,4.20
2023-05-24T04:01:05.977Z,4.13
2023-05-24T04:03:34.394Z,4.75
2023-05-24T04:06:01.604Z,6.05
2023-05-24T04:08:28.612Z,4.53
2023-05-24T04:10:55.722Z,5.90
2023-05-24T04:13:22.736Z,5.22
2023-05-24T04:15:49.700Z,5.00
2023-05-24T04:18:16.818Z,5.10
2023-05-24T04:20:43.939Z,5.07
2023-05-24T04:23:11.081Z,4.65
2023-05-24T04:25:38.144Z,4.65
2023-05-24T04:28:06.218Z,5.55
2023-05-24T04:30:33.246Z,6.85
2023-05-24T04:33:00.420Z,6.30
2023-05-24T04:35:27.512Z,6.53
2023-05-24T04:37:54.506Z,5.13
2023-05-24T04:40:21.467Z,4.60
2023-05-24T04:42:48.799Z,6.95
2023-05-24T04:45:15.948Z,5.47
2023-05-24T04:47:43.282Z,6.18
2023-05-24T04:50:11.004Z,5.75
2023-05-24T04:52:38.030Z,5.30
2023-05-24T04:55:05.481Z,5.53
2023-05-24T04:57:32.421Z,6.30
2023-05-24T04:59:59.453Z,5.13
2023-05-24T05:02:27.224Z,5.68
2023-05-24T05:04:54.452Z,8.10
2023-05-24T05:07:21.647Z,6.22
2023-05-24T05:09:48.759Z,4.18
2023-05-24T05:12:16.116Z,6.13
2023-05-24T05:14:43.366Z,5.47
2023-05-24T05:17:10.390Z,4.22
2023-05-24T05:19:37.298Z,8.25
2023-05-24T05:22:04.552Z,5.00
2023-05-24T05:24:31.616Z,5.18
2023-05-24T05:26:58.802Z,5.30
2023-05-24T05:29:25.780Z,5.63
2023-05-24T05:31:52.846Z,7.65
2023-05-24T05:34:21.181Z,5.72
2023-05-24T05:36:48.263Z,5.20
2023-05-24T05:39:15.303Z,5.57
2023-05-24T05:41:45.915Z,4.93
2023-05-24T05:44:13.830Z,7.57
2023-05-24T05:46:43.757Z,4.50
2023-05-24T05:49:13.304Z,5.68
2023-05-24T05:51:40.376Z,6.20
2023-05-24T05:54:14.207Z,4.53
2023-05-24T05:56:45.541Z,4.63
2023-05-24T05:59:12.969Z,7.15
2023-05-24T06:01:41.142Z,6.03
2023-05-24T06:04:08.411Z,4.63
2023-05-24T06:06:35.467Z,4.20
2023-05-24T06:09:02.516Z,7.00
2023-05-24T06:11:29.474Z,4.45
2023-05-24T06:13:56.812Z,7.30
2023-05-24T06:16:23.918Z,4.90
2023-05-24T06:19:04.501Z,5.53
2023-05-24T06:21:33.257Z,5.03
2023-05-24T06:24:04.268Z,4.05
2023-05-24T06:26:31.358Z,4.72
2023-05-24T06:28:58.372Z,5.15
2023-05-24T06:31:25.441Z,3.85
2023-05-24T06:34:03.850Z,3.53
2023-05-24T06:36:34.231Z,5.57
2023-05-24T06:39:01.501Z,3.53
2023-05-24T06:41:28.664Z,4.13
2023-05-24T06:43:55.808Z,5.20
2023-05-24T06:46:22.891Z,4.88
2023-05-24T06:48:49.991Z,4.15
2023-05-24T06:51:17.256Z,4.82
2023-05-24T06:53:44.611Z,4.63
2023-05-24T06:56:11.682Z,4.85
2023-05-24T06:58:38.717Z,5.07
2023-05-24T07:01:05.683Z,5.65
2023-05-24T07:03:32.644Z,6.18
2023-05-24T07:05:59.745Z,3.42
2023-05-24T07:08:26.706Z,5.00
2023-05-24T07:10:54.632Z,4.28
2023-05-24T07:13:21.879Z,4.57
2023-05-24T07:15:51.051Z,4.82
2023-05-24T07:18:18.104Z,3.72
2023-05-24T07:20:45.169Z,4.25
2023-05-24T07:23:12.370Z,4.97
2023-05-24T07:25:39.341Z,4.30
2023-05-24T07:28:06.311Z,5.85
2023-05-24T07:30:34.084Z,4.70
2023-05-24T07:33:01.926Z,3.67
2023-05-24T07:35:29.541Z,4.00
2023-05-24T07:37:57.003Z,3.58
2023-05-24T07:40:24.231Z,5.20
2023-05-24T07:42:51.611Z,4.93
2023-05-24T07:45:18.550Z,4.32
2023-05-24T07:47:46.020Z,5.32
2023-05-24T07:50:13.057Z,4.30
2023-05-24T07:52:40.066Z,3.15
2023-05-24T07:55:07.246Z,4.75
2023-05-24T07:57:34.216Z,3.97
2023-05-24T08:00:07.223Z,3.50
2023-05-24T08:02:34.924Z,4.87
2023-05-24T08:05:02.087Z,3.65
2023-05-24T08:07:30.145Z,4.53
2023-05-24T08:09:57.268Z,2.80
2023-05-24T08:12:26.110Z,2.53
2023-05-24T08:14:53.278Z,4.38
2023-05-24T08:17:20.327Z,2.90
2023-05-24T08:19:47.331Z,3.03
2023-05-24T08:22:20.029Z,3.22
2023-05-24T08:24:47.399Z,2.17
2023-05-24T08:27:14.849Z,2.88
2023-05-24T08:29:41.958Z,2.63
2023-05-24T08:32:09.899Z,3.20
2023-05-24T08:34:37.806Z,3.20
2023-05-24T08:37:05.708Z,2.67
2023-05-24T08:39:32.854Z,3.17
2023-05-24T08:42:09.460Z,3.53
2023-05-24T08:44:47.917Z,2.55
2023-05-24T08:47:15.838Z,3.00
2023-05-24T08:49:43.316Z,3.00
2023-05-24T08:52:12.570Z,3.90
2023-05-24T08:54:41.480Z,2.75
2023-05-24T08:57:11.869Z,2.45
2023-05-24T08:59:42.540Z,3.75
2023-05-24T09:02:15.806Z,3.20
2023-05-24T09:04:44.508Z,4.55
2023-05-24T09:07:14.051Z,3.70
2023-05-24T09:09:47.974Z,3.20
2023-05-24T09:12:28.283Z,3.65
2023-05-24T09:15:04.765Z,3.85
2023-05-24T09:17:33.693Z,3.15
2023-05-24T09:20:01.606Z,2.83
2023-05-24T09:22:30.904Z,2.97
2023-05-24T09:25:02.081Z,4.05
2023-05-24T09:27:31.818Z,3.45
2023-05-24T09:29:59.154Z,3.47
2023-05-24T09:32:26.367Z,3.97
2023-05-24T09:34:54.461Z,3.58
2023-05-24T09:37:28.218Z,5.35
2023-05-24T09:39:58.231Z,4.78
2023-05-24T09:42:28.471Z,3.65
2023-05-24T09:45:10.510Z,3.20
2023-05-24T09:47:39.520Z,2.75
2023-05-24T09:50:13.157Z,3.67
2023-05-24T09:52:41.849Z,4.82
2023-05-24T09:55:16.028Z,4.22
2023-05-24T09:57:53.413Z,3.45
2023-05-24T10:00:25.140Z,2.90
2023-05-24T10:03:08.886Z,3.80
2023-05-24T10:05:37.068Z,4.18
2023-05-24T10:08:05.281Z,3.72
2023-05-24T10:10:34.091Z,3.13
2023-05-24T10:13:02.065Z,3.55
2023-05-24T10:15:29.794Z,2.60
2023-05-24T10:17:58.016Z,5.53
2023-05-24T10:20:25.532Z,2.13
2023-05-24T10:22:59.246Z,3.33
2023-05-24T10:28:02.005Z,3.33
2023-05-24T10:30:38.775Z,2.65
2023-05-24T10:33:08.246Z,4.95
2023-05-24T10:35:38.229Z,3.20
2023-05-24T10:38:09.185Z,4.18
2023-05-24T10:40:44.305Z,3.20
2023-05-24T10:43:12.293Z,3.92
2023-05-24T10:45:42.096Z,3.20
2023-05-24T10:48:13.724Z,4.60
2023-05-24T10:50:42.043Z,3.70
2023-05-24T10:53:12.819Z,4.78
2023-05-24T10:55:59.917Z,3.70
2023-05-24T10:58:51.840Z,4.13
2023-05-24T11:01:29.375Z,4.45
2023-05-24T11:04:26.567Z,4.35
2023-05-24T11:07:06.548Z,5.00
2023-05-24T11:09:33.758Z,5.32
2023-05-24T11:12:08.859Z,4.20
2023-05-24T11:14:39.967Z,4.43
2023-05-24T11:17:08.203Z,3.15
2023-05-24T11:19:45.950Z,6.80
2023-05-24T11:22:15.068Z,3.72
2023-05-24T11:24:42.877Z,4.20
2023-05-24T11:27:13.107Z,4.78
2023-05-24T11:29:45.109Z,3.80
2023-05-24T11:32:20.598Z,3.30
2023-05-24T11:34:48.723Z,2.88
2023-05-24T11:37:17.942Z,4.22
2023-05-24T11:39:51.109Z,3.20
2023-05-24T11:42:18.188Z,3.13
2023-05-24T11:44:48.351Z,3.17
2023-05-24T11:47:15.447Z,3.92
2023-05-24T11:49:42.402Z,4.15
2023-05-24T11:52:09.398Z,2.63
2023-05-24T11:54:38.689Z,4.70
2023-05-24T11:57:05.975Z,5.18
2023-05-24T11:59:33.224Z,2.97
2023-05-24T12:02:08.779Z,3.90
2023-05-24T12:04:35.929Z,2.90
2023-05-24T12:07:03.457Z,4.70
2023-05-24T12:09:30.547Z,4.53
2023-05-24T12:12:00.321Z,3.88
2023-05-24T12:14:33.521Z,3.47
2023-05-24T12:17:03.646Z,3.83
2023-05-24T12:19:37.244Z,4.45
2023-05-24T12:24:33.171Z,2.85
2023-05-24T12:27:08.845Z,5.10
2023-05-24T12:29:41.882Z,3.53
2023-05-24T12:32:13.623Z,2.97
2023-05-24T12:34:42.580Z,2.58
2023-05-24T12:37:10.278Z,2.72
2023-05-24T12:39:37.901Z,3.45
2023-05-24T12:42:05.200Z,3.05
2023-05-24T12:44:38.344Z,2.75
2023-05-24T12:47:07.556Z,3.05
2023-05-24T12:49:34.894Z,2.85
2023-05-24T12:52:02.129Z,3.40
2023-05-24T12:54:30.093Z,4.35
2023-05-24T12:57:00.059Z,2.25
2023-05-24T12:59:28.716Z,3.75
2023-05-24T13:01:56.368Z,2.55
2023-05-24T13:04:26.286Z,2.72
2023-05-24T13:06:53.575Z,2.70
2023-05-24T13:09:24.138Z,2.60
2023-05-24T13:11:52.318Z,2.97
2023-05-24T13:14:19.999Z,3.90
2023-05-24T13:16:47.874Z,2.70
2023-05-24T13:19:15.057Z,3.45
2023-05-24T13:21:42.740Z,2.50
2023-05-24T13:24:09.967Z,4.00
2023-05-24T13:26:38.189Z,2.78
2023-05-24T13:31:41.264Z,2.70
2023-05-24T13:34:09.215Z,2.65
2023-05-24T13:36:38.207Z,3.60
2023-05-24T13:39:15.475Z,2.83
2023-05-24T13:41:44.239Z,3.42
2023-05-24T13:44:12.237Z,3.67
2023-05-24T13:46:40.254Z,2.53
2023-05-24T13:49:09.436Z,3.38
2023-05-24T13:51:37.112Z,2.55
2023-05-24T13:54:06.978Z,3.78
2023-05-24T13:56:34.401Z,3.08
2023-05-24T13:59:03.556Z,3.25
2023-05-24T14:01:31.340Z,4.43
2023-05-24T14:03:58.834Z,3.03
2023-05-24T14:06:25.938Z,2.17
2023-05-24T14:08:52.943Z,4.25
2023-05-24T14:11:19.989Z,3.90
2023-05-24T14:16:17.203Z,2.90
2023-05-24T14:18:44.720Z,4.60
2023-05-24T14:21:12.089Z,2.33
2023-05-24T14:23:39.250Z,2.25
2023-05-24T14:26:06.814Z,2.22
2023-05-24T14:28:33.746Z,2.92
2023-05-24T14:31:00.858Z,1.77
2023-05-24T14:33:27.769Z,3.78
2023-05-24T14:35:54.864Z,2.90
2023-05-24T14:38:23.960Z,2.03
2023-05-24T14:40:51.331Z,4.07
2023-05-24T14:43:18.596Z,1.90
2023-05-24T14:45:45.731Z,3.58
2023-05-24T14:48:13.290Z,2.08
2023-05-24T14:50:41.146Z,2.15
2023-05-24T14:53:15.086Z,2.85
2023-05-24T14:55:44.007Z,2.35
2023-05-24T14:58:12.191Z,2.95
2023-05-24T15:00:42.616Z,2.55
2023-05-24T15:03:12.808Z,2.30
2023-05-24T15:05:41.435Z,2.53
2023-05-24T15:08:09.272Z,2.72
2023-05-24T15:10:36.346Z,3.20
2023-05-24T15:13:03.922Z,2.15
2023-05-24T15:15:31.482Z,2.85
2023-05-24T15:18:00.012Z,2.97
2023-05-24T15:20:27.198Z,2.45
2023-05-24T15:22:54.364Z,2.20
2023-05-24T15:25:21.584Z,2.53
2023-05-24T15:27:48.757Z,2.50
2023-05-24T15:30:17.535Z,2.53
2023-05-24T15:32:46.508Z,3.42
2023-05-24T15:35:13.864Z,2.28
2023-05-24T15:37:41.512Z,2.38
2023-05-24T15:40:10.397Z,2.95
2023-05-24T15:42:37.310Z,4.68
2023-05-24T15:45:04.658Z,2.78
2023-05-24T15:47:36.334Z,3.50
2023-05-24T15:50:04.036Z,2.90
2023-05-24T15:52:31.003Z,3.28
2023-05-24T15:54:57.959Z,2.08
2023-05-24T15:57:24.891Z,2.97
2023-05-24T15:59:51.850Z,2.30
2023-05-24T16:02:21.207Z,2.75
2023-05-24T16:04:48.603Z,2.88
2023-05-24T16:07:15.570Z,2.88
2023-05-24T16:09:42.569Z,3.22
2023-05-24T16:12:10.134Z,2.50
2023-05-24T16:14:37.151Z,2.78
2023-05-24T16:17:07.279Z,2.80
2023-05-24T16:19:34.371Z,2.80
2023-05-24T16:22:01.281Z,2.45
2023-05-24T16:24:28.496Z,3.58
2023-05-24T16:26:57.712Z,2.25
2023-05-24T16:29:25.192Z,3.17
2023-05-24T16:31:52.239Z,2.78
2023-05-24T16:34:19.336Z,2.83
2023-05-24T16:36:47.047Z,3.13
2023-05-24T16:39:14.057Z,3.15
2023-05-24T16:41:41.503Z,3.22
2023-05-24T16:44:08.532Z,2.60
2023-05-24T16:46:36.624Z,3.03
2023-05-24T16:49:04.212Z,2.42
2023-05-24T16:51:31.244Z,3.65
2023-05-24T16:53:58.200Z,3.28
2023-05-24T16:56:25.149Z,2.13
2023-05-24T16:58:52.601Z,2.15
2023-05-24T17:01:19.571Z,2.20
2023-05-24T17:03:46.656Z,2.75
2023-05-24T17:06:13.877Z,1.92
2023-05-24T17:08:40.996Z,2.72
2023-05-24T17:11:08.011Z,2.92
2023-05-24T17:13:34.987Z,2.58
2023-05-24T17:16:03.593Z,3.75
2023-05-24T17:18:31.112Z,5.40
2023-05-24T17:21:04.349Z,2.55
2023-05-24T17:23:39.745Z,3.00
2023-05-24T17:26:10.153Z,2.72
2023-05-24T17:28:37.158Z,2.95
2023-05-24T17:31:07.631Z,1.98
2023-05-24T17:33:34.526Z,1.55
2023-05-24T17:36:06.249Z,2.00
2023-05-24T17:38:34.276Z,1.48
2023-05-24T17:41:01.202Z,2.47
2023-05-24T17:43:34.483Z,1.55
2023-05-24T17:46:09.623Z,2.63
2023-05-24T17:48:38.297Z,2.03
2023-05-24T17:51:09.977Z,2.30
2023-05-24T17:53:38.211Z,2.08
2023-05-24T17:56:06.307Z,4.20
2023-05-24T17:58:36.541Z,2.25
2023-05-24T18:01:08.768Z,2.40
2023-05-24T18:03:37.429Z,3.17
2023-05-24T18:06:06.825Z,2.63
2023-05-24T18:08:36.233Z,2.50
2023-05-24T18:11:07.915Z,3.75
2023-05-24T18:13:35.633Z,2.72
2023-05-24T18:16:03.109Z,2.88
2023-05-24T18:18:30.400Z,3.05
2023-05-24T18:20:57.400Z,2.28
2023-05-24T18:23:24.362Z,2.10
2023-05-24T18:26:01.391Z,3.60
2023-05-24T18:28:30.331Z,3.00
2023-05-24T18:30:57.256Z,3.50
2023-05-24T18:33:24.560Z,3.35
2023-05-24T18:35:51.643Z,2.80
2023-05-24T18:38:18.689Z,2.63
2023-05-24T18:40:45.797Z,3.03
2023-05-24T18:43:12.787Z,2.55
2023-05-24T18:45:39.717Z,2.38
2023-05-24T18:48:06.875Z,3.20
2023-05-24T18:50:33.999Z,4.70
2023-05-24T18:53:01.167Z,2.53
2023-05-24T18:55:28.533Z,3.35
2023-05-24T18:57:55.476Z,2.40
2023-05-24T19:00:25.704Z,3.05
2023-05-24T19:02:53.014Z,2.67
2023-05-24T19:05:20.405Z,3.60
2023-05-24T19:07:47.372Z,2.88
2023-05-24T19:10:14.396Z,3.03
2023-05-24T19:12:41.476Z,3.53
2023-05-24T19:15:08.808Z,5.03
2023-05-24T19:17:35.819Z,4.40
2023-05-24T19:20:03.244Z,2.95
2023-05-24T19:22:30.355Z,3.00
2023-05-24T19:24:57.362Z,6.28
2023-05-24T19:27:24.711Z,2.85
2023-05-24T19:29:51.917Z,3.15
2023-05-24T19:32:20.462Z,3.42
2023-05-24T19:34:47.673Z,4.07
2023-05-24T19:37:15.853Z,3.70
2023-05-24T19:39:43.043Z,3.75
2023-05-24T19:42:11.662Z,3.33
2023-05-24T19:44:38.697Z,3.30
2023-05-24T19:47:06.082Z,3.63
2023-05-24T19:49:33.091Z,2.78
2023-05-24T19:52:00.081Z,3.10
2023-05-24T19:54:27.176Z,3.03
2023-05-24T19:56:55.980Z,2.90
2023-05-24T19:59:22.881Z,4.22
2023-05-24T20:01:49.955Z,3.10
2023-05-24T20:04:16.880Z,4.38
2023-05-24T20:06:43.984Z,3.28
2023-05-24T20:09:10.912Z,4.00
2023-05-24T20:11:38.214Z,3.17
2023-05-24T20:14:05.174Z,4.28
2023-05-24T20:16:32.234Z,3.58
2023-05-24T20:18:59.272Z,4.35
2023-05-24T20:21:28.800Z,4.13
2023-05-24T20:23:58.765Z,4.63
2023-05-24T20:26:26.434Z,4.55
2023-05-24T20:28:53.712Z,3.88
2023-05-24T20:31:20.750Z,4.50
2023-05-24T20:33:49.860Z,4.78
2023-05-24T20:36:17.070Z,5.38
2023-05-24T20:38:44.038Z,4.55
2023-05-24T20:41:10.988Z,4.22
2023-05-24T20:43:37.970Z,5.32
2023-05-24T20:46:05.069Z,4.00
2023-05-24T20:48:32.119Z,4.18
2023-05-24T20:50:59.077Z,4.80
2023-05-24T20:53:26.153Z,5.10
2023-05-24T20:55:53.416Z,5.18
2023-05-24T20:58:20.776Z,4.63
2023-05-24T21:00:47.737Z,4.28
2023-05-24T21:03:14.899Z,4.13
2023-05-24T21:05:42.117Z,5.85
2023-05-24T21:08:09.214Z,4.25
2023-05-24T21:10:38.140Z,5.03
2023-05-24T21:13:05.620Z,5.10
2023-05-24T21:15:32.596Z,5.03
2023-05-24T21:17:59.875Z,4.72
2023-05-24T21:20:26.955Z,7.60
2023-05-24T21:22:53.932Z,5.30
2023-05-24T21:25:20.972Z,5.53
2023-05-24T21:27:47.989Z,5.88
2023-05-24T21:30:15.808Z,5.88
2023-05-24T21:32:42.994Z,9.00
2023-05-24T21:35:10.171Z,4.28
2023-05-24T21:37:37.198Z,5.85
2023-05-24T21:40:05.257Z,6.28
2023-05-24T21:42:32.323Z,6.47
2023-05-24T21:44:59.545Z,5.53
2023-05-24T21:47:26.572Z,6.30
2023-05-24T21:49:54.969Z,6.20
2023-05-24T21:52:23.193Z,6.28
2023-05-24T21:54:50.122Z,6.32
2023-05-24T21:57:17.067Z,4.97
2023-05-24T21:59:44.071Z,5.93
2023-05-24T22:02:11.170Z,6.75
2023-05-24T22:04:38.365Z,7.15
2023-05-24T22:07:05.449Z,5.15
2023-05-24T22:09:32.618Z,6.05
2023-05-24T22:11:59.669Z,5.18
2023-05-24T22:14:27.118Z,5.00
2023-05-24T22:16:56.627Z,6.70
2023-05-24T22:19:38.897Z,6.97
2023-05-24T22:22:07.232Z,5.95
2023-05-24T22:24:34.303Z,5.22
2023-05-24T22:27:02.561Z,5.78
2023-05-24T22:29:29.614Z,5.45
2023-05-24T22:31:56.737Z,5.97
2023-05-24T22:34:28.143Z,6.22
2023-05-24T22:36:55.571Z,5.55
2023-05-24T22:39:23.172Z,5.50
2023-05-24T22:41:52.073Z,5.63
2023-05-24T22:44:19.569Z,5.15
2023-05-24T22:46:49.804Z,5.40
2023-05-24T22:49:19.785Z,5.10
2023-05-24T22:51:48.634Z,6.82
2023-05-24T22:54:15.938Z,6.55
2023-05-24T22:56:43.824Z,5.30
2023-05-24T22:59:11.545Z,5.38
2023-05-24T23:01:38.899Z,5.93
2023-05-24T23:04:19.562Z,5.32
2023-05-24T23:06:48.931Z,5.43
2023-05-24T23:09:17.587Z,6.60
2023-05-24T23:11:46.155Z,5.85
2023-05-24T23:14:14.284Z,6.75
2023-05-24T23:16:45.064Z,6.75
2023-05-24T23:19:13.645Z,6.35
2023-05-24T23:21:44.861Z,5.80
2023-05-24T23:24:14.565Z,6.90
2023-05-24T23:26:42.308Z,5.80
2023-05-24T23:29:09.817Z,6.93
2023-05-24T23:31:37.020Z,5.10
2023-05-24T23:34:04.839Z,6.07
2023-05-24T23:36:31.860Z,6.45
2023-05-24T23:38:58.831Z,6.28
2023-05-24T23:41:26.577Z,6.95
2023-05-24T23:43:53.562Z,6.13
2023-05-24T23:46:20.636Z,6.85
2023-05-24T23:48:47.646Z,6.88
2023-05-24T23:51:14.734Z,6.72
2023-05-24T23:53:41.602Z,6.47
2023-05-24T23:56:08.531Z,10.52
2023-05-24T23:58:36.056Z,6.63
